createdAt,value
2022-12-28T00:01:21.561Z,97.10
2022-12-28T00:03:48.610Z,97.00
2022-12-28T00:06:18.152Z,96.70
2022-12-28T00:08:45.326Z,97.20
2022-12-28T00:11:26.347Z,97.70
2022-12-28T00:13:56.640Z,98.10
2022-12-28T00:16:29.782Z,97.90
2022-12-28T00:18:58.411Z,96.50
2022-12-28T00:21:25.878Z,97.40
2022-12-28T00:23:53.823Z,97.30
2022-12-28T00:26:25.176Z,98.40
2022-12-28T00:28:54.365Z,98.50
2022-12-28T00:31:22.409Z,98.80
2022-12-28T00:33:49.251Z,99.20
2022-12-28T00:36:16.499Z,99.00
2022-12-28T00:38:43.738Z,99.20
2022-12-28T00:41:11.217Z,98.90
2022-12-28T00:43:38.204Z,99.90
2022-12-28T00:46:05.121Z,99.90
2022-12-28T00:48:32.362Z,99.90
2022-12-28T00:51:04.218Z,99.90
2022-12-28T00:53:31.205Z,99.90
2022-12-28T00:56:12.767Z,99.90
2022-12-28T00:58:40.235Z,99.90
2022-12-28T01:01:13.024Z,99.90
2022-12-28T01:03:39.785Z,99.90
2022-12-28T01:06:07.510Z,99.90
2022-12-28T01:08:36.249Z,99.90
2022-12-28T01:11:17.232Z,99.90
2022-12-28T01:13:44.084Z,99.90
2022-12-28T01:16:15.805Z,99.90
2022-12-28T01:18:48.392Z,99.90
2022-12-28T01:21:17.583Z,99.90
2022-12-28T01:23:45.905Z,99.90
2022-12-28T01:26:13.450Z,99.90
2022-12-28T01:28:41.985Z,99.90
2022-12-28T01:31:11.515Z,99.90
2022-12-28T01:33:39.152Z,99.90
2022-12-28T01:36:16.808Z,99.90
2022-12-28T01:38:44.694Z,99.90
2022-12-28T01:41:14.429Z,99.90
2022-12-28T01:43:47.866Z,99.90
2022-12-28T01:46:17.464Z,99.90
2022-12-28T01:48:52.977Z,99.90
2022-12-28T01:51:23.529Z,99.90
2022-12-28T01:54:07.359Z,99.90
2022-12-28T01:56:34.051Z,99.90
2022-12-28T01:59:00.775Z,99.90
2022-12-28T02:01:28.135Z,99.90
2022-12-28T02:03:55.002Z,99.90
2022-12-28T02:06:21.878Z,99.90
2022-12-28T02:08:54.288Z,99.90
2022-12-28T02:11:21.309Z,99.90
2022-12-28T02:13:49.455Z,99.90
2022-12-28T02:16:16.314Z,99.90
2022-12-28T02:18:44.358Z,99.90
2022-12-28T02:21:33.119Z,99.90
2022-12-28T02:24:38.129Z,99.90
2022-12-28T02:27:14.282Z,99.90
2022-12-28T02:29:47.738Z,99.90
2022-12-28T02:32:46.933Z,99.90
2022-12-28T02:35:30.356Z,99.90
2022-12-28T02:38:03.482Z,99.90
2022-12-28T02:40:40.739Z,99.90
2022-12-28T02:43:07.556Z,99.90
2022-12-28T02:46:04.651Z,99.90
2022-12-28T02:49:01.404Z,99.90
2022-12-28T02:52:03.062Z,99.90
2022-12-28T02:54:48.280Z,99.90
2022-12-28T02:57:35.131Z,99.90
2022-12-28T03:00:08.168Z,99.90
2022-12-28T03:02:41.326Z,99.90
2022-12-28T03:05:11.668Z,99.90
2022-12-28T03:08:20.017Z,99.90
2022-12-28T03:10:57.067Z,99.90
2022-12-28T03:13:44.821Z,99.90
2022-12-28T03:16:22.776Z,99.90
2022-12-28T03:19:14.164Z,99.90
2022-12-28T03:22:00.558Z,99.90
2022-12-28T03:24:48.289Z,99.90
2022-12-28T03:27:35.473Z,99.90
2022-12-28T03:30:29.953Z,99.90
2022-12-28T03:32:57.226Z,99.90
2022-12-28T03:35:28.232Z,99.90
2022-12-28T03:38:01.578Z,99.90
2022-12-28T03:40:32.400Z,99.90
2022-12-28T03:43:22.722Z,99.90
2022-12-28T03:45:56.232Z,99.90
2022-12-28T03:48:23.899Z,99.90
2022-12-28T03:50:51.601Z,99.90
2022-12-28T03:53:21.445Z,99.90
2022-12-28T03:55:48.089Z,99.90
2022-12-28T03:58:14.808Z,99.90
2022-12-28T04:00:41.526Z,99.90
2022-12-28T04:03:08.492Z,99.90
2022-12-28T04:05:35.363Z,99.90
2022-12-28T04:08:02.163Z,99.90
2022-12-28T04:10:30.386Z,99.90
2022-12-28T04:12:57.065Z,99.90
2022-12-28T04:15:23.821Z,99.90
2022-12-28T04:17:50.524Z,99.90
2022-12-28T04:20:17.448Z,99.90
2022-12-28T04:22:44.644Z,99.90
2022-12-28T04:25:11.365Z,99.90
2022-12-28T04:27:38.019Z,99.90
2022-12-28T04:30:05.621Z,99.90
2022-12-28T04:32:32.409Z,99.90
2022-12-28T04:34:59.109Z,99.90
2022-12-28T04:37:25.837Z,99.90
2022-12-28T04:39:56.023Z,99.90
2022-12-28T04:42:25.122Z,99.90
2022-12-28T04:44:51.977Z,99.90
2022-12-28T04:47:18.709Z,99.90
2022-12-28T04:49:45.433Z,99.90
2022-12-28T04:52:12.552Z,99.90
2022-12-28T04:54:39.266Z,99.90
2022-12-28T04:57:06.783Z,99.90
2022-12-28T04:59:33.463Z,99.90
2022-12-28T05:02:00.369Z,99.90
2022-12-28T05:04:27.157Z,99.90
2022-12-28T05:06:53.878Z,99.90
2022-12-28T05:09:20.630Z,99.90
2022-12-28T05:11:47.329Z,99.90
2022-12-28T05:14:14.246Z,99.90
2022-12-28T05:16:41.215Z,99.90
2022-12-28T05:19:08.501Z,99.90
2022-12-28T05:21:35.196Z,99.90
2022-12-28T05:24:01.942Z,99.90
2022-12-28T05:26:29.907Z,99.90
2022-12-28T05:28:57.295Z,99.90
2022-12-28T05:31:24.803Z,99.90
2022-12-28T05:33:52.184Z,99.90
2022-12-28T05:36:22.080Z,99.90
2022-12-28T05:38:49.031Z,99.90
2022-12-28T05:41:21.443Z,99.90
2022-12-28T05:43:48.633Z,99.90
2022-12-28T05:46:19.420Z,99.90
2022-12-28T05:48:46.837Z,99.90
2022-12-28T05:51:16.297Z,99.90
2022-12-28T05:53:43.491Z,99.90
2022-12-28T05:56:15.136Z,99.90
2022-12-28T05:58:46.413Z,99.90
2022-12-28T06:01:15.525Z,99.90
2022-12-28T06:03:42.962Z,99.90
2022-12-28T06:06:15.104Z,99.90
2022-12-28T06:08:43.222Z,99.90
2022-12-28T06:11:12.556Z,99.90
2022-12-28T06:13:39.681Z,99.90
2022-12-28T06:16:12.772Z,99.90
2022-12-28T06:18:39.591Z,99.90
2022-12-28T06:21:17.493Z,99.90
2022-12-28T06:23:44.630Z,99.90
2022-12-28T06:26:13.763Z,99.90
2022-12-28T06:28:41.180Z,99.90
2022-12-28T06:31:13.690Z,99.90
2022-12-28T06:33:40.476Z,99.90
2022-12-28T06:36:19.699Z,99.90
2022-12-28T06:38:47.769Z,99.90
2022-12-28T06:41:15.253Z,99.90
2022-12-28T06:43:43.218Z,99.90
2022-12-28T06:46:11.342Z,99.90
2022-12-28T06:48:38.444Z,99.90
2022-12-28T06:51:16.517Z,99.90
2022-12-28T06:53:45.304Z,99.90
2022-12-28T06:56:20.159Z,99.90
2022-12-28T06:58:48.308Z,99.90
2022-12-28T07:01:18.441Z,99.90
2022-12-28T07:03:46.769Z,99.90
2022-12-28T07:06:16.113Z,99.90
2022-12-28T07:08:43.628Z,99.90
2022-12-28T07:11:19.876Z,99.90
2022-12-28T07:13:47.373Z,99.90
2022-12-28T07:16:22.063Z,99.90
2022-12-28T07:18:52.639Z,99.90
2022-12-28T07:21:24.816Z,99.90
2022-12-28T07:23:53.130Z,99.90
2022-12-28T07:26:22.545Z,99.90
2022-12-28T07:28:51.269Z,99.90
2022-12-28T07:31:20.514Z,99.90
2022-12-28T07:33:48.062Z,99.90
2022-12-28T07:36:16.985Z,99.90
2022-12-28T07:38:44.357Z,99.90
2022-12-28T07:41:17.455Z,99.90
2022-12-28T07:43:45.383Z,99.90
2022-12-28T07:46:27.202Z,99.90
2022-12-28T07:48:54.778Z,99.90
2022-12-28T07:51:25.653Z,99.90
2022-12-28T07:53:52.896Z,99.90
2022-12-28T07:56:20.290Z,99.90
2022-12-28T07:58:55.158Z,99.90
2022-12-28T08:01:23.833Z,99.90
2022-12-28T08:03:56.817Z,99.90
2022-12-28T08:06:24.923Z,99.90
2022-12-28T08:08:58.831Z,99.90
2022-12-28T08:11:31.793Z,99.90
2022-12-28T08:13:59.627Z,99.90
2022-12-28T08:16:28.046Z,99.90
2022-12-28T08:18:55.390Z,99.90
2022-12-28T08:21:26.431Z,99.90
2022-12-28T08:23:53.483Z,99.90
2022-12-28T08:26:35.062Z,99.90
2022-12-28T08:29:03.964Z,99.90
2022-12-28T08:31:36.030Z,99.90
2022-12-28T08:34:04.507Z,99.90
2022-12-28T08:36:31.581Z,99.90
2022-12-28T08:38:58.841Z,99.90
2022-12-28T08:41:28.677Z,99.90
2022-12-28T08:43:57.561Z,99.90
2022-12-28T08:46:30.100Z,99.90
2022-12-28T08:48:58.201Z,99.90
2022-12-28T08:51:46.740Z,99.90
2022-12-28T08:54:16.323Z,99.90
2022-12-28T08:56:45.273Z,99.90
2022-12-28T08:59:18.102Z,99.90
2022-12-28T09:01:45.924Z,99.90
2022-12-28T09:04:20.430Z,99.90
2022-12-28T09:06:48.024Z,99.90
2022-12-28T09:09:16.532Z,99.90
2022-12-28T09:11:43.696Z,99.90
2022-12-28T09:14:17.160Z,99.90
2022-12-28T09:16:49.409Z,99.90
2022-12-28T09:19:16.333Z,99.90
2022-12-28T09:21:45.274Z,99.90
2022-12-28T09:24:13.356Z,99.90
2022-12-28T09:26:40.425Z,99.90
2022-12-28T09:29:10.647Z,99.90
2022-12-28T09:31:37.590Z,99.90
2022-12-28T09:36:58.252Z,99.90
2022-12-28T09:39:25.238Z,99.90
2022-12-28T09:42:10.983Z,99.90
2022-12-28T09:45:04.385Z,99.90
2022-12-28T09:47:35.527Z,99.90
2022-12-28T09:50:07.895Z,99.90
2022-12-28T09:53:03.161Z,99.90
2022-12-28T09:55:30.739Z,99.90
2022-12-28T09:58:00.376Z,99.90
2022-12-28T10:00:47.170Z,99.90
2022-12-28T10:03:19.507Z,99.90
2022-12-28T10:05:46.626Z,99.90
2022-12-28T10:08:16.118Z,99.90
2022-12-28T10:10:48.392Z,99.90
2022-12-28T10:13:53.518Z,99.90
2022-12-28T10:16:20.012Z,99.90
2022-12-28T10:18:48.376Z,99.90
2022-12-28T10:21:19.820Z,99.90
2022-12-28T10:26:36.269Z,99.90
2022-12-28T10:29:10.898Z,99.90
2022-12-28T10:31:40.215Z,99.90
2022-12-28T10:34:21.041Z,99.90
2022-12-28T10:36:48.964Z,99.90
2022-12-28T10:39:21.050Z,99.90
2022-12-28T10:41:48.825Z,99.90
2022-12-28T10:44:40.342Z,99.90
2022-12-28T10:47:18.315Z,99.90
2022-12-28T10:52:40.055Z,99.90
2022-12-28T10:55:36.474Z,99.90
2022-12-28T10:58:36.040Z,99.90
2022-12-28T11:01:07.651Z,99.90
2022-12-28T11:03:37.021Z,99.90
2022-12-28T11:06:26.581Z,99.90
2022-12-28T11:09:13.052Z,99.90
2022-12-28T11:11:40.733Z,99.90
2022-12-28T11:14:15.793Z,99.90
2022-12-28T11:16:43.087Z,99.90
2022-12-28T11:19:11.874Z,99.90
2022-12-28T11:21:43.191Z,99.90
2022-12-28T11:24:17.696Z,99.90
2022-12-28T11:26:47.027Z,99.90
2022-12-28T11:29:15.380Z,99.90
2022-12-28T11:31:54.752Z,99.90
2022-12-28T11:34:24.952Z,99.90
2022-12-28T11:36:52.008Z,98.80
2022-12-28T11:39:27.891Z,98.50
2022-12-28T11:44:45.483Z,99.60
2022-12-28T11:47:18.137Z,99.30
2022-12-28T11:49:46.466Z,98.80
2022-12-28T11:52:24.104Z,99.90
2022-12-28T11:54:56.071Z,99.00
2022-12-28T11:57:40.640Z,96.80
2022-12-28T12:00:22.861Z,98.10
2022-12-28T12:03:00.820Z,98.40
2022-12-28T12:05:37.155Z,97.50
2022-12-28T12:08:14.081Z,98.30
2022-12-28T12:10:42.530Z,98.30
2022-12-28T12:13:27.762Z,98.00
2022-12-28T12:16:18.820Z,98.10
2022-12-28T12:18:54.575Z,98.10
2022-12-28T12:21:33.010Z,99.30
2022-12-28T12:24:28.001Z,98.90
2022-12-28T12:27:08.576Z,97.10
2022-12-28T12:29:42.344Z,96.70
2022-12-28T12:32:25.744Z,97.50
2022-12-28T12:34:56.552Z,99.00
2022-12-28T12:37:44.928Z,97.90
2022-12-28T12:40:37.991Z,97.60
2022-12-28T12:43:30.495Z,98.60
2022-12-28T12:46:37.262Z,97.70
2022-12-28T12:49:35.022Z,98.00
2022-12-28T12:52:20.575Z,98.40
2022-12-28T12:55:25.564Z,98.20
2022-12-28T12:58:04.108Z,97.30
2022-12-28T13:01:03.389Z,98.40
2022-12-28T13:03:47.623Z,97.20
2022-12-28T13:06:17.380Z,98.20
2022-12-28T13:08:50.235Z,98.10
2022-12-28T13:11:18.179Z,96.90
2022-12-28T13:13:47.574Z,97.60
2022-12-28T13:16:23.471Z,97.60
2022-12-28T13:19:16.836Z,96.50
2022-12-28T13:21:49.099Z,96.20
2022-12-28T13:24:39.279Z,94.10
2022-12-28T13:27:19.317Z,96.90
2022-12-28T13:29:52.150Z,96.20
2022-12-28T13:32:34.198Z,93.40
2022-12-28T13:35:17.452Z,94.30
2022-12-28T13:37:44.304Z,95.50
2022-12-28T13:40:12.697Z,95.60
2022-12-28T13:42:57.467Z,95.70
2022-12-28T13:45:24.987Z,95.10
2022-12-28T13:47:52.920Z,96.10
2022-12-28T13:50:24.280Z,94.50
2022-12-28T13:52:56.448Z,95.90
2022-12-28T13:55:27.523Z,93.80
2022-12-28T13:57:59.884Z,94.00
2022-12-28T14:00:27.795Z,95.20
2022-12-28T14:02:55.474Z,94.90
2022-12-28T14:05:25.174Z,94.70
2022-12-28T14:07:53.325Z,95.30
2022-12-28T14:10:20.296Z,94.60
2022-12-28T14:12:48.087Z,94.50
2022-12-28T14:15:16.159Z,93.80
2022-12-28T14:17:45.269Z,94.20
2022-12-28T14:20:12.170Z,94.20
2022-12-28T14:22:40.031Z,94.90
2022-12-28T14:25:12.476Z,94.30
2022-12-28T14:28:03.730Z,94.30
2022-12-28T14:30:33.956Z,94.90
2022-12-28T14:33:19.373Z,94.30
2022-12-28T14:36:05.946Z,93.30
2022-12-28T14:38:45.688Z,92.80
2022-12-28T14:41:23.297Z,93.10
2022-12-28T14:43:55.127Z,92.80
2022-12-28T14:46:28.280Z,93.30
2022-12-28T14:48:55.097Z,93.00
2022-12-28T14:51:24.792Z,91.50
2022-12-28T14:54:15.728Z,91.00
2022-12-28T14:56:48.630Z,91.50
2022-12-28T14:59:19.983Z,91.40
2022-12-28T15:01:47.463Z,92.40
2022-12-28T15:04:45.659Z,93.00
2022-12-28T15:07:12.617Z,93.70
2022-12-28T15:09:40.463Z,92.00
2022-12-28T15:12:20.388Z,92.30
2022-12-28T15:14:48.818Z,92.10
2022-12-28T15:17:16.618Z,92.60
2022-12-28T15:19:45.168Z,93.30
2022-12-28T15:22:12.838Z,93.10
2022-12-28T15:24:41.435Z,93.40
2022-12-28T15:27:08.314Z,90.10
2022-12-28T15:32:21.979Z,90.80
2022-12-28T15:34:49.153Z,91.60
2022-12-28T15:37:16.072Z,91.40
2022-12-28T15:39:43.109Z,90.40
2022-12-28T15:42:09.901Z,89.60
2022-12-28T15:44:36.774Z,89.60
2022-12-28T15:47:03.491Z,89.20
2022-12-28T15:49:30.338Z,90.10
2022-12-28T15:51:58.095Z,90.10
2022-12-28T15:54:24.831Z,90.00
2022-12-28T15:56:53.196Z,85.60
2022-12-28T15:59:19.941Z,90.00
2022-12-28T16:01:47.737Z,90.10
2022-12-28T16:04:15.200Z,89.40
2022-12-28T16:06:44.701Z,88.40
2022-12-28T16:09:12.692Z,85.80
2022-12-28T16:11:39.602Z,88.00
2022-12-28T16:14:09.113Z,90.70
2022-12-28T16:16:38.461Z,85.90
2022-12-28T16:19:06.831Z,90.40
2022-12-28T16:21:33.571Z,88.20
2022-12-28T16:24:00.806Z,90.60
2022-12-28T16:26:27.845Z,91.00
2022-12-28T16:28:54.700Z,86.80
2022-12-28T16:31:26.461Z,89.10
2022-12-28T16:34:01.225Z,89.00
2022-12-28T16:36:28.316Z,90.70
2022-12-28T16:38:55.548Z,90.00
2022-12-28T16:41:22.343Z,90.40
2022-12-28T16:43:49.325Z,88.40
2022-12-28T16:46:16.663Z,88.20
2022-12-28T16:48:43.803Z,90.80
2022-12-28T16:51:11.831Z,91.10
2022-12-28T16:53:38.591Z,86.30
2022-12-28T16:56:06.201Z,86.00
2022-12-28T16:58:33.449Z,87.50
2022-12-28T17:01:06.984Z,87.00
2022-12-28T17:03:34.615Z,80.60
2022-12-28T17:06:01.519Z,81.20
2022-12-28T17:08:28.334Z,81.70
2022-12-28T17:10:55.156Z,85.50
2022-12-28T17:13:22.084Z,86.00
2022-12-28T17:15:48.945Z,85.00
2022-12-28T17:18:15.717Z,83.60
2022-12-28T17:20:44.905Z,85.50
2022-12-28T17:23:11.922Z,88.80
2022-12-28T17:25:38.749Z,88.60
2022-12-28T17:28:05.812Z,88.20
2022-12-28T17:30:34.581Z,88.50
2022-12-28T17:33:01.303Z,87.90
2022-12-28T17:35:28.119Z,87.10
2022-12-28T17:37:55.009Z,88.50
2022-12-28T17:40:21.756Z,88.30
2022-12-28T17:42:48.706Z,88.00
2022-12-28T17:45:15.507Z,86.30
2022-12-28T17:47:43.191Z,88.20
2022-12-28T17:50:10.113Z,82.10
2022-12-28T17:52:36.804Z,88.40
2022-12-28T17:55:04.082Z,89.10
2022-12-28T17:57:35.344Z,85.60
2022-12-28T18:00:06.680Z,87.50
2022-12-28T18:02:33.739Z,90.60
2022-12-28T18:05:01.221Z,93.10
2022-12-28T18:07:27.938Z,94.50
2022-12-28T18:09:54.862Z,93.90
2022-12-28T18:12:21.569Z,95.20
2022-12-28T18:14:48.638Z,96.10
2022-12-28T18:17:19.257Z,95.60
2022-12-28T18:19:46.165Z,96.20
2022-12-28T18:22:12.931Z,97.20
2022-12-28T18:24:39.732Z,98.10
2022-12-28T18:27:06.495Z,97.40
2022-12-28T18:29:33.235Z,95.20
2022-12-28T18:32:00.121Z,96.40
2022-12-28T18:34:28.028Z,97.10
2022-12-28T18:36:55.405Z,97.60
2022-12-28T18:39:22.148Z,98.30
2022-12-28T18:41:49.021Z,98.80
2022-12-28T18:44:15.708Z,99.30
2022-12-28T18:46:42.682Z,98.90
2022-12-28T18:49:09.761Z,99.50
2022-12-28T18:51:37.097Z,99.90
2022-12-28T18:54:03.883Z,99.20
2022-12-28T18:56:30.707Z,99.70
2022-12-28T18:58:58.588Z,99.90
2022-12-28T19:04:16.338Z,99.70
2022-12-28T19:06:44.118Z,99.90
2022-12-28T19:09:11.916Z,99.90
2022-12-28T19:11:39.806Z,99.90
2022-12-28T19:14:08.876Z,99.90
2022-12-28T19:16:35.742Z,99.90
2022-12-28T19:19:02.755Z,99.90
2022-12-28T19:21:37.427Z,99.90
2022-12-28T19:24:07.020Z,99.90
2022-12-28T19:26:35.016Z,99.90
2022-12-28T19:29:03.596Z,99.90
2022-12-28T19:31:31.289Z,99.90
2022-12-28T19:33:58.457Z,99.90
2022-12-28T19:36:25.852Z,99.90
2022-12-28T19:38:56.643Z,99.90
2022-12-28T19:41:23.627Z,99.90
2022-12-28T19:43:50.744Z,99.90
2022-12-28T19:46:21.483Z,99.90
2022-12-28T19:48:49.188Z,99.90
2022-12-28T19:51:16.409Z,99.90
2022-12-28T19:53:43.736Z,99.90
2022-12-28T19:56:13.541Z,99.90
2022-12-28T19:58:40.634Z,99.90
2022-12-28T20:01:11.968Z,99.90
2022-12-28T20:03:39.096Z,99.90
2022-12-28T20:06:24.721Z,99.90
2022-12-28T20:08:53.583Z,99.90
2022-12-28T20:11:21.156Z,99.90
2022-12-28T20:14:03.798Z,99.90
2022-12-28T20:16:32.457Z,99.90
2022-12-28T20:19:01.702Z,99.90
2022-12-28T20:21:28.879Z,99.90
2022-12-28T20:23:55.668Z,99.90
2022-12-28T20:26:24.658Z,99.90
2022-12-28T20:28:51.951Z,99.90
2022-12-28T20:31:18.957Z,99.90
2022-12-28T20:33:46.683Z,99.90
2022-12-28T20:36:19.368Z,99.90
2022-12-28T20:38:48.310Z,99.90
2022-12-28T20:41:36.000Z,99.90
2022-12-28T20:44:05.743Z,99.70
2022-12-28T20:46:33.086Z,99.30
2022-12-28T20:49:00.253Z,98.60
2022-12-28T20:51:27.563Z,98.70
2022-12-28T20:53:54.917Z,99.00
2022-12-28T20:56:22.996Z,97.80
2022-12-28T20:58:50.279Z,98.10
2022-12-28T21:01:18.058Z,97.10
2022-12-28T21:03:46.009Z,96.80
2022-12-28T21:06:12.735Z,97.20
2022-12-28T21:08:39.840Z,97.20
2022-12-28T21:11:06.729Z,97.90
2022-12-28T21:13:34.664Z,96.90
2022-12-28T21:16:04.583Z,96.40
2022-12-28T21:18:32.027Z,96.10
2022-12-28T21:21:00.206Z,96.30
2022-12-28T21:23:28.149Z,96.50
2022-12-28T21:26:06.814Z,96.30
2022-12-28T21:28:34.207Z,97.20
2022-12-28T21:31:03.663Z,96.00
2022-12-28T21:33:30.703Z,96.80
2022-12-28T21:36:17.726Z,96.20
2022-12-28T21:38:45.836Z,95.70
2022-12-28T21:41:38.039Z,96.30
2022-12-28T21:44:06.696Z,96.70
2022-12-28T21:46:33.950Z,96.30
2022-12-28T21:49:00.833Z,97.50
2022-12-28T21:51:37.322Z,97.40
2022-12-28T21:54:11.924Z,97.10
2022-12-28T21:56:39.215Z,95.80
2022-12-28T21:59:06.864Z,96.90
2022-12-28T22:01:52.537Z,96.20
2022-12-28T22:04:39.516Z,96.60
2022-12-28T22:07:08.228Z,97.30
2022-12-28T22:09:54.064Z,97.80
2022-12-28T22:12:39.496Z,98.20
2022-12-28T22:15:34.188Z,98.30
2022-12-28T22:18:03.130Z,98.20
2022-12-28T22:20:30.182Z,97.40
2022-12-28T22:22:58.726Z,98.10
2022-12-28T22:25:26.144Z,97.60
2022-12-28T22:27:52.956Z,97.80
2022-12-28T22:30:20.045Z,97.60
2022-12-28T22:32:47.014Z,97.30
2022-12-28T22:35:14.091Z,97.40
2022-12-28T22:37:42.871Z,97.30
2022-12-28T22:40:10.531Z,98.10
2022-12-28T22:42:42.447Z,96.40
2022-12-28T22:45:14.173Z,97.40
2022-12-28T22:47:43.182Z,96.40
2022-12-28T22:50:12.009Z,96.80
2022-12-28T22:52:38.685Z,96.80
2022-12-28T22:55:05.748Z,96.90
2022-12-28T22:57:32.468Z,97.50
2022-12-28T22:59:59.103Z,98.50
2022-12-28T23:02:25.932Z,97.70
2022-12-28T23:04:52.712Z,97.40
2022-12-28T23:07:19.370Z,98.80
2022-12-28T23:09:45.952Z,97.60
2022-12-28T23:12:12.667Z,97.70
2022-12-28T23:14:57.876Z,98.30
2022-12-28T23:17:26.675Z,98.20
2022-12-28T23:20:11.863Z,98.30
2022-12-28T23:22:57.300Z,97.80
2022-12-28T23:25:43.465Z,97.90
2022-12-28T23:28:15.641Z,98.30
2022-12-28T23:30:46.198Z,98.30
2022-12-28T23:33:12.911Z,98.30
2022-12-28T23:35:39.750Z,96.90
2022-12-28T23:38:06.652Z,97.60
2022-12-28T23:40:33.431Z,98.30
2022-12-28T23:43:00.301Z,97.70
2022-12-28T23:45:27.043Z,98.40
2022-12-28T23:47:53.890Z,98.00
2022-12-28T23:50:20.652Z,98.30
2022-12-28T23:52:47.329Z,98.70
2022-12-28T23:55:14.240Z,98.90
2022-12-28T23:57:41.208Z,98.10
